Main page
METAR-TAF:

METAR-TAF

Airports :

Getafe Air Base

Madrid-Getafe, Spain

latitude: 40-18N, longitude: 003-43W, elevation: 620 m

Current weather observation

The report was made 15 minutes ago, at 18:00 UTC
Wind 7 kt from the Northeast
Temperature 18°C
Humidity 77%
Pressure 1021 hPa
Visibility 10 km or more
Few clouds at a height of 4000 ft, Towering cumulus.
Scattered clouds at a height of 4800 ft

METAR: LEGT 201800Z 04007KT 9999 FEW040TCU SCT048 18/14 Q1021

Time: 20:15 (18:15 UTC)

Forecast

The report was made 1 hour and 15 minutes ago, at 17:00 UTC
Forecast valid from 20 at 18 UTC to 21 at 03 UTC
Wind 9 kt from the Northeast
Visibility 10 km or more
Scattered clouds at a height of 4000 ft
Probability 30% :
Temporary
from 20 at 18 UTC to 20 at 19 UTC
Scattered clouds at a height of 4000 ft, Cumulonimbus.
rain showers, thunderstorm

TAF: LEGT 201700Z 2018/2103 04009KT 9999 SCT040 PROB30 TEMPO 2018/2019 SHRA TS SCT040CB

Weather observations and forecasts of more than 4000 airports (METAR and TAF reports).

The available stations are represented by yellow and red dots on the map.

Hover mouse over dot to see the name of the station.

Then click to see weather observations and forecasts.

To change the map : click on the green buttons with a black cross to zoom in, on the green button with a dash to zoom out, or on the green arrows for adjacent maps.


METAR-TAF: